Folla — LLPD — position and weather

sailwx.info

Track history (hours):
 
Tides and Currents Weather Stations Pressure Air Temp Water Temp Dewpoint Dewpoint Depression Visibility Wind Speed Wind Dir Waves Ship Positions

Folla

Last reported at 2014-Oct-31 11:27 UTC. Time now 2014-Nov-01 02:48 UTC.
Position N 67°23' E 013°51'.

Length 52 m; draft 5 m.

Type: Cargo ship. MMSI: 258253000.

Date/timePositionNaut miles runAvg speedWind from/ knotsBaromVisibWave heightAir tempDewpointWater temp
2014-Oct-31 11:27N 67°23' E 013°51'1011.4
2014-Oct-31 10:33N 67°14' E 013°40'3711.2
2014-Oct-31 07:14N 66°42' E 012°52'811.2
2014-Oct-31 06:33N 66°35' E 012°44'1111.0
2014-Oct-31 05:33N 66°25' E 012°30'8 7.7
2014-Oct-31 04:33N 66°18' E 012°23'72 9.0
2014-Oct-30 20:29N 65°07' E 011°49'1011.1
2014-Oct-30 19:34N 64°59' E 011°35'1111.4
2014-Oct-30 18:34N 64°51' E 011°14'1210.0
2014-Oct-30 17:23N 64°40' E 011°07'5 0.3
2014-Oct-30 02:13N 64°37' E 011°16'7 9.7
2014-Oct-30 01:31N 64°42' E 011°07'9 9.2
2014-Oct-30 00:33N 64°51' E 011°12'1 1.2
2014-Oct-29 23:34N 64°52' E 011°14'0 0.0
2014-Oct-29 22:34N 64°52' E 011°14'0 0.0
2014-Oct-29 21:34N 64°52' E 011°14'0 0.0
2014-Oct-29 20:34N 64°52' E 011°14'0 0.0
2014-Oct-29 19:34N 64°52' E 011°14'0 0.0
2014-Oct-29 18:34N 64°52' E 011°14'0 0.0
2014-Oct-29 17:34N 64°52' E 011°14'0 0.0
2014-Oct-29 16:34N 64°52' E 011°14'0 0.0
2014-Oct-29 15:34N 64°52' E 011°14'0 0.0
2014-Oct-29 14:34N 64°52' E 011°14'0 0.0
2014-Oct-29 13:34N 64°52' E 011°14'0 0.0
2014-Oct-29 12:34N 64°52' E 011°14'0 0.0
2014-Oct-29 11:33N 64°52' E 011°14'0 0.0
2014-Oct-29 10:34N 64°52' E 011°14'0 0.0
2014-Oct-29 09:34N 64°52' E 011°14'0 0.0
2014-Oct-29 08:34N 64°52' E 011°14'0 0.0
2014-Oct-29 07:34N 64°52' E 011°14'0 0.3
2014-Oct-29 06:34N 64°52' E 011°15'0 0.0
2014-Oct-29 05:34N 64°52' E 011°15'1 1.0
2014-Oct-29 04:34N 64°52' E 011°17'8 8.5
2014-Oct-29 03:34N 64°57' E 011°31'2 1.6
2014-Oct-29 02:29N 64°58' E 011°35'8 6.7
2014-Oct-29 01:19N 65°05' E 011°43'8 9.1
2014-Oct-29 00:24N 65°12' E 011°53'5510.8
2014-Oct-28 19:15N 66°04' E 012°39'7 6.8
2014-Oct-28 18:13N 66°11' E 012°46'0 0.0
2014-Oct-28 17:19N 66°11' E 012°46'0 0.0
2014-Oct-28 16:28N 66°11' E 012°46'7 4.8
2014-Oct-28 15:07N 66°16' E 012°55'5 9.5
2014-Oct-28 14:33N 66°21' E 012°57'10 9.5
2014-Oct-28 13:33N 66°31' E 012°58'34 4.2
2014-Oct-28 05:34N 67°00' E 013°39'1110.5
2014-Oct-28 04:33N 67°07' E 013°59'1010.2
2014-Oct-28 03:33N 67°15' E 014°15'4 4.3
2014-Oct-28 02:34N 67°18' E 014°23'1010.3
2014-Oct-28 01:34N 67°28' E 014°28'156 6.2
2014-Oct-27 00:24N 69°33' E 018°44'5 0.5
2014-Oct-26 14:06N 69°36' E 018°55'611.4
2014-Oct-26 13:34N 69°42' E 019°02'3 0.2
2014-Oct-25 20:07N 69°45' E 019°06'5 8.6
2014-Oct-25 19:33N 69°41' E 018°59'0 0.2
2014-Oct-25 18:33N 69°41' E 018°59'9 7.9
2014-Oct-25 17:26N 69°33' E 018°45'222 6.6
2014-Oct-24 07:29N 66°32' E 012°59'1010.5
2014-Oct-24 06:33N 66°24' E 012°46'4 4.4
2014-Oct-24 05:33N 66°25' E 012°35'7 6.8
2014-Oct-24 04:34N 66°20' E 012°23'1110.2
2014-Oct-24 03:28N 66°11' E 012°39'58 9.6
2014-Oct-23 21:28N 65°16' E 011°57'1011.0
2014-Oct-23 20:33N 65°06' E 011°48'1110.9
2014-Oct-23 19:33N 64°58' E 011°32'10 9.8
2014-Oct-23 18:33N 64°51' E 011°14'1110.1
2014-Oct-23 17:28N 64°41' E 011°07'7 0.3
2014-Oct-22 13:33N 64°48' E 011°06'5 5.2
2014-Oct-22 12:33N 64°52' E 011°14'0 0.1
2014-Oct-22 11:33N 64°52' E 011°15'0 0.0
2014-Oct-22 10:33N 64°52' E 011°15'0 0.1
2014-Oct-22 09:33N 64°52' E 011°14'0 0.0
2014-Oct-22 08:33N 64°52' E 011°14'0 0.0
2014-Oct-22 07:33N 64°52' E 011°14'0 0.0
2014-Oct-22 06:33N 64°52' E 011°14'0 0.0
2014-Oct-22 05:33N 64°52' E 011°14'0 0.0
2014-Oct-22 04:33N 64°52' E 011°14'0 0.0
2014-Oct-22 03:33N 64°52' E 011°14'0 0.0
2014-Oct-22 02:33N 64°52' E 011°14'0 0.0
2014-Oct-22 01:33N 64°52' E 011°14'0 0.0
2014-Oct-22 00:33N 64°52' E 011°14'0 0.0
2014-Oct-21 23:33N 64°52' E 011°14'0 0.0
2014-Oct-21 22:33N 64°52' E 011°14'0 0.3
2014-Oct-21 21:33N 64°52' E 011°15'1110.9
2014-Oct-21 20:33N 64°59' E 011°35'1110.7
2014-Oct-21 19:29N 65°08' E 011°49'  
Track history (hours):
 
Tides and Currents Weather Stations Pressure Air Temp Water Temp Dewpoint Dewpoint Depression Visibility Wind Speed Wind Dir Waves Ship Positions

Folla

Last reported at 2014-Oct-31 11:27 UTC. Time now 2014-Nov-01 02:48 UTC.
Position N 67°23' E 013°51'.

Length 52 m; draft 5 m.

Type: Cargo ship. MMSI: 258253000.

Date/timePositionNaut miles runAvg speedWind from/ knotsBaromVisibWave heightAir tempDewpointWater temp
2014-Oct-31 11:27N 67°23' E 013°51'1011.4
2014-Oct-31 10:33N 67°14' E 013°40'3711.2
2014-Oct-31 07:14N 66°42' E 012°52'811.2
2014-Oct-31 06:33N 66°35' E 012°44'1111.0
2014-Oct-31 05:33N 66°25' E 012°30'8 7.7
2014-Oct-31 04:33N 66°18' E 012°23'72 9.0
2014-Oct-30 20:29N 65°07' E 011°49'1011.1
2014-Oct-30 19:34N 64°59' E 011°35'1111.4
2014-Oct-30 18:34N 64°51' E 011°14'1210.0
2014-Oct-30 17:23N 64°40' E 011°07'5 0.3
2014-Oct-30 02:13N 64°37' E 011°16'7 9.7
2014-Oct-30 01:31N 64°42' E 011°07'9 9.2
2014-Oct-30 00:33N 64°51' E 011°12'1 1.2
2014-Oct-29 23:34N 64°52' E 011°14'0 0.0
2014-Oct-29 22:34N 64°52' E 011°14'0 0.0
2014-Oct-29 21:34N 64°52' E 011°14'0 0.0
2014-Oct-29 20:34N 64°52' E 011°14'0 0.0
2014-Oct-29 19:34N 64°52' E 011°14'0 0.0
2014-Oct-29 18:34N 64°52' E 011°14'0 0.0
2014-Oct-29 17:34N 64°52' E 011°14'0 0.0
2014-Oct-29 16:34N 64°52' E 011°14'0 0.0
2014-Oct-29 15:34N 64°52' E 011°14'0 0.0
2014-Oct-29 14:34N 64°52' E 011°14'0 0.0
2014-Oct-29 13:34N 64°52' E 011°14'0 0.0
2014-Oct-29 12:34N 64°52' E 011°14'0 0.0
2014-Oct-29 11:33N 64°52' E 011°14'0 0.0
2014-Oct-29 10:34N 64°52' E 011°14'0 0.0
2014-Oct-29 09:34N 64°52' E 011°14'0 0.0
2014-Oct-29 08:34N 64°52' E 011°14'0 0.0
2014-Oct-29 07:34N 64°52' E 011°14'0 0.3
2014-Oct-29 06:34N 64°52' E 011°15'0 0.0
2014-Oct-29 05:34N 64°52' E 011°15'1 1.0
2014-Oct-29 04:34N 64°52' E 011°17'8 8.5
2014-Oct-29 03:34N 64°57' E 011°31'2 1.6
2014-Oct-29 02:29N 64°58' E 011°35'8 6.7
2014-Oct-29 01:19N 65°05' E 011°43'8 9.1
2014-Oct-29 00:24N 65°12' E 011°53'5510.8
2014-Oct-28 19:15N 66°04' E 012°39'7 6.8
2014-Oct-28 18:13N 66°11' E 012°46'0 0.0
2014-Oct-28 17:19N 66°11' E 012°46'0 0.0
2014-Oct-28 16:28N 66°11' E 012°46'7 4.8
2014-Oct-28 15:07N 66°16' E 012°55'5 9.5
2014-Oct-28 14:33N 66°21' E 012°57'10 9.5
2014-Oct-28 13:33N 66°31' E 012°58'34 4.2
2014-Oct-28 05:34N 67°00' E 013°39'1110.5
2014-Oct-28 04:33N 67°07' E 013°59'1010.2
2014-Oct-28 03:33N 67°15' E 014°15'4 4.3
2014-Oct-28 02:34N 67°18' E 014°23'1010.3
2014-Oct-28 01:34N 67°28' E 014°28'156 6.2
2014-Oct-27 00:24N 69°33' E 018°44'5 0.5
2014-Oct-26 14:06N 69°36' E 018°55'611.4
2014-Oct-26 13:34N 69°42' E 019°02'3 0.2
2014-Oct-25 20:07N 69°45' E 019°06'5 8.6
2014-Oct-25 19:33N 69°41' E 018°59'0 0.2
2014-Oct-25 18:33N 69°41' E 018°59'9 7.9
2014-Oct-25 17:26N 69°33' E 018°45'222 6.6
2014-Oct-24 07:29N 66°32' E 012°59'1010.5
2014-Oct-24 06:33N 66°24' E 012°46'4 4.4
2014-Oct-24 05:33N 66°25' E 012°35'7 6.8
2014-Oct-24 04:34N 66°20' E 012°23'1110.2
2014-Oct-24 03:28N 66°11' E 012°39'58 9.6
2014-Oct-23 21:28N 65°16' E 011°57'1011.0
2014-Oct-23 20:33N 65°06' E 011°48'1110.9
2014-Oct-23 19:33N 64°58' E 011°32'10 9.8
2014-Oct-23 18:33N 64°51' E 011°14'1110.1
2014-Oct-23 17:28N 64°41' E 011°07'7 0.3
2014-Oct-22 13:33N 64°48' E 011°06'5 5.2
2014-Oct-22 12:33N 64°52' E 011°14'0 0.1
2014-Oct-22 11:33N 64°52' E 011°15'0 0.0
2014-Oct-22 10:33N 64°52' E 011°15'0 0.1
2014-Oct-22 09:33N 64°52' E 011°14'0 0.0
2014-Oct-22 08:33N 64°52' E 011°14'0 0.0
2014-Oct-22 07:33N 64°52' E 011°14'0 0.0
2014-Oct-22 06:33N 64°52' E 011°14'0 0.0
2014-Oct-22 05:33N 64°52' E 011°14'0 0.0
2014-Oct-22 04:33N 64°52' E 011°14'0 0.0
2014-Oct-22 03:33N 64°52' E 011°14'0 0.0
2014-Oct-22 02:33N 64°52' E 011°14'0 0.0
2014-Oct-22 01:33N 64°52' E 011°14'0 0.0
2014-Oct-22 00:33N 64°52' E 011°14'0 0.0
2014-Oct-21 23:33N 64°52' E 011°14'0 0.0
2014-Oct-21 22:33N 64°52' E 011°14'0 0.3
2014-Oct-21 21:33N 64°52' E 011°15'1110.9
2014-Oct-21 20:33N 64°59' E 011°35'1110.7
2014-Oct-21 19:29N 65°08' E 011°49'  

Dump ship's entire track history